This is the latest recevied weather packets stored in our database for station/object CW2401. If no packets are shown the sender has not sent any weather packets the latest 10 day(s).
| Time | Temp. | Humidity | Pressure | Rain* | Wind** | Luminosity | Snow |
|---|---|---|---|---|---|---|---|
| 1777940717 | 20.56° C | 51% | 1014.4 hPa | 0 mm | - | - | - |
| 1777939749 | 21.67° C | 48% | 1014.3 hPa | 0 mm | - | - | - |
| 1777939508 | 21.67° C | 49% | 1014.3 hPa | 0 mm | - | - | - |
| 1777939269 | 21.67° C | 48% | 1014.3 hPa | 0 mm | - | - | - |
| 1777938904 | 22.22° C | 48% | 1014.2 hPa | 0 mm | - | - | - |
| 1777938298 | 22.78° C | 48% | 1014.2 hPa | 0 mm | - | - | - |
| 1777937207 | 23.33° C | 48% | 1014.1 hPa | 0 mm | - | - | - |
| 1777937087 | 23.33° C | 49% | 1014.1 hPa | 0 mm | - | - | - |
| 1777935512 | 23.89° C | 44% | 1014 hPa | 0 mm | - | - | - |
| 1777935393 | 24.44° C | 45% | 1014 hPa | 0 mm | - | - | - |
| 1777935273 | 24.44° C | 43% | 1014.1 hPa | 0 mm | - | - | - |
| 1777933832 | 25° C | 40% | 1014.1 hPa | 0 mm | - | - | - |
| 1777932508 | 25.56° C | 39% | 1014.1 hPa | 0 mm | - | - | - |
| 1777930215 | 25.56° C | 41% | 1014.1 hPa | 0 mm | - | - | - |
| 1777929130 | 25.56° C | 38% | 1014.1 hPa | 0 mm | - | - | - |
| 1777929008 | 25.56° C | 39% | 1014.1 hPa | 0 mm | - | - | - |
| 1777928770 | 25.56° C | 38% | 1014.2 hPa | 0 mm | - | - | - |
| 1777927078 | 25.56° C | 40% | 1014.4 hPa | 0 mm | - | - | - |
| 1777924184 | 25° C | 36% | 1014.7 hPa | 0 mm | - | - | - |
| 1777923580 | 25° C | 36% | 1015 hPa | 0 mm | - | - | - |
| 1777922499 | 25° C | 36% | 1015.2 hPa | 0 mm | - | - | - |
| 1777922259 | 24.44° C | 36% | 1015.1 hPa | 0 mm | - | - | - |
| 1777922137 | 24.44° C | 37% | 1015.2 hPa | 0 mm | - | - | - |
| 1777921296 | 24.44° C | 38% | 1015.4 hPa | 0 mm | - | - | - |
| 1777921174 | 24.44° C | 37% | 1015.4 hPa | 0 mm | - | - | - |
* Rain latest hour (hover to see other rain measurements)
** Current wind speed in m/s (hover to see current wind gust speed)